WJA482 CYEG-CYWG
Flight info
| Callsign | WJA482 |
|---|---|
| Flight time | 1h 37m |
| Altitude | 39000 |
| Route | OMROD DCT IGVUX DCT FUDGY DCT SEGAP BEFAN5 |
| Aircraft | B737/M-SDE2E3FGHIRWXY/LB1 |
Departure
| Time | 2026-05-06 01:04 |
|---|---|
| Airport | Edmonton International Airport (CYEG) |
Arrival
| Time | 2026-05-06 02:42 |
|---|---|
| Airport | Winnipeg / James Armstrong Richardson International Airport (CYWG) |
| Time | Latitude | Longitude | Altitude | Speed | Heading |
|---|---|---|---|---|---|
| 2026-05-06 00:42 | 53.30543 | -113.58346 | 2291 ft | 0 kts | 39° |
| 2026-05-06 00:54 | 53.30543 | -113.58347 | 2383 ft | 1 kts | 39° |
| 2026-05-06 00:54 | 53.30525 | -113.58371 | 2383 ft | 4 kts | 39° |
| 2026-05-06 00:54 | 53.30504 | -113.58400 | 2383 ft | 4 kts | 39° |
| 2026-05-06 00:54 | 53.30483 | -113.58429 | 2385 ft | 4 kts | 39° |
| 2026-05-06 00:55 | 53.30466 | -113.58453 | 2383 ft | 2 kts | 39° |
| 2026-05-06 00:55 | 53.30462 | -113.58460 | 2383 ft | 2 kts | 41° |
| 2026-05-06 00:55 | 53.30461 | -113.58462 | 2383 ft | 0 kts | 43° |
| 2026-05-06 00:59 | 53.30465 | -113.58461 | 2383 ft | 2 kts | 14° |
| 2026-05-06 00:59 | 53.30491 | -113.58495 | 2383 ft | 8 kts | 314° |
| 2026-05-06 00:59 | 53.30549 | -113.58593 | 2383 ft | 15 kts | 316° |
| 2026-05-06 00:59 | 53.30595 | -113.58704 | 2383 ft | 9 kts | 275° |
| 2026-05-06 01:00 | 53.30569 | -113.58794 | 2387 ft | 9 kts | 226° |
| 2026-05-06 01:00 | 53.30529 | -113.58868 | 2386 ft | 8 kts | 233° |
| 2026-05-06 01:00 | 53.30544 | -113.58955 | 2383 ft | 9 kts | 311° |
| 2026-05-06 01:00 | 53.30594 | -113.59038 | 2383 ft | 11 kts | 315° |
| 2026-05-06 01:01 | 53.30653 | -113.59139 | 2386 ft | 13 kts | 314° |
| 2026-05-06 01:01 | 53.30722 | -113.59254 | 2386 ft | 15 kts | 316° |
| 2026-05-06 01:01 | 53.30799 | -113.59375 | 2384 ft | 14 kts | 316° |
| 2026-05-06 01:01 | 53.30864 | -113.59479 | 2383 ft | 13 kts | 316° |
| 2026-05-06 01:02 | 53.30923 | -113.59563 | 2388 ft | 10 kts | 349° |
| 2026-05-06 01:02 | 53.30953 | -113.59545 | 2384 ft | 0 kts | 33° |
| 2026-05-06 01:04 | 53.31072 | -113.59406 | 2384 ft | 57 kts | 34° |
| 2026-05-06 01:04 | 53.31603 | -113.58788 | 2384 ft | 126 kts | 35° |
| 2026-05-06 01:04 | 53.32478 | -113.57762 | 2454 ft | 174 kts | 35° |
| 2026-05-06 01:04 | 53.33494 | -113.56609 | 3165 ft | 179 kts | 33° |
| 2026-05-06 01:05 | 53.34535 | -113.55456 | 4090 ft | 181 kts | 32° |
| 2026-05-06 01:05 | 53.35602 | -113.54279 | 4920 ft | 187 kts | 32° |
| 2026-05-06 01:05 | 53.36733 | -113.53019 | 5492 ft | 204 kts | 32° |
| 2026-05-06 01:05 | 53.37940 | -113.51621 | 6079 ft | 218 kts | 32° |
| 2026-05-06 01:06 | 53.39195 | -113.50084 | 6747 ft | 229 kts | 43° |
| 2026-05-06 01:06 | 53.39899 | -113.47642 | 7484 ft | 246 kts | 79° |
| 2026-05-06 01:06 | 53.39771 | -113.44726 | 8244 ft | 256 kts | 93° |
| 2026-05-06 01:06 | 53.39502 | -113.41739 | 9009 ft | 262 kts | 93° |
| 2026-05-06 01:07 | 53.39217 | -113.38672 | 9660 ft | 275 kts | 95° |
| 2026-05-06 01:07 | 53.38425 | -113.35610 | 10224 ft | 303 kts | 128° |
| 2026-05-06 01:07 | 53.36731 | -113.33316 | 10711 ft | 328 kts | 145° |
| 2026-05-06 01:07 | 53.34744 | -113.31306 | 11185 ft | 345 kts | 148° |
| 2026-05-06 01:08 | 53.32643 | -113.29278 | 12026 ft | 351 kts | 148° |
| 2026-05-06 01:08 | 53.30527 | -113.27211 | 12955 ft | 354 kts | 147° |
| 2026-05-06 01:08 | 53.28404 | -113.25084 | 13887 ft | 358 kts | 146° |
| 2026-05-06 01:08 | 53.26266 | -113.22893 | 14705 ft | 363 kts | 146° |
| 2026-05-06 01:09 | 53.24098 | -113.20635 | 15430 ft | 372 kts | 145° |
| 2026-05-06 01:09 | 53.21881 | -113.18306 | 16200 ft | 380 kts | 144° |
| 2026-05-06 01:09 | 53.19634 | -113.15933 | 16981 ft | 387 kts | 144° |
| 2026-05-06 01:09 | 53.17369 | -113.13538 | 17749 ft | 394 kts | 144° |
| 2026-05-06 01:10 | 53.15037 | -113.11071 | 18521 ft | 401 kts | 144° |
| 2026-05-06 01:10 | 53.12657 | -113.08556 | 19157 ft | 409 kts | 143° |
| 2026-05-06 01:10 | 53.10225 | -113.05989 | 19748 ft | 418 kts | 143° |
| 2026-05-06 01:10 | 53.07744 | -113.03373 | 20349 ft | 427 kts | 143° |
| 2026-05-06 01:11 | 53.05209 | -113.00705 | 20958 ft | 435 kts | 142° |
| 2026-05-06 01:11 | 53.02624 | -112.97990 | 21562 ft | 443 kts | 142° |
| 2026-05-06 01:11 | 52.99996 | -112.95233 | 22163 ft | 452 kts | 141° |
| 2026-05-06 01:11 | 52.97313 | -112.92422 | 22733 ft | 460 kts | 141° |
| 2026-05-06 01:12 | 52.94586 | -112.89571 | 23299 ft | 468 kts | 141° |
| 2026-05-06 01:12 | 52.91808 | -112.86671 | 23861 ft | 476 kts | 141° |
| 2026-05-06 01:12 | 52.89018 | -112.83766 | 24349 ft | 483 kts | 141° |
| 2026-05-06 01:12 | 52.86162 | -112.80797 | 24902 ft | 487 kts | 141° |
| 2026-05-06 01:13 | 52.83284 | -112.77810 | 25458 ft | 491 kts | 141° |
| 2026-05-06 01:13 | 52.80434 | -112.74680 | 25965 ft | 489 kts | 133° |
| 2026-05-06 01:13 | 52.78049 | -112.70790 | 26559 ft | 476 kts | 117° |
| 2026-05-06 01:13 | 52.76230 | -112.66344 | 27137 ft | 461 kts | 105° |
| 2026-05-06 01:14 | 52.74099 | -112.56704 | 28112 ft | 446 kts | 92° |
| 2026-05-06 01:14 | 52.73203 | -112.51769 | 28589 ft | 451 kts | 91° |
| 2026-05-06 01:14 | 52.72291 | -112.46790 | 29068 ft | 456 kts | 91° |
| 2026-05-06 01:15 | 52.71355 | -112.41769 | 29571 ft | 460 kts | 92° |
| 2026-05-06 01:15 | 52.70411 | -112.36777 | 30013 ft | 465 kts | 92° |
| 2026-05-06 01:15 | 52.69435 | -112.31681 | 30447 ft | 469 kts | 92° |
| 2026-05-06 01:15 | 52.68440 | -112.26530 | 30829 ft | 472 kts | 92° |
| 2026-05-06 01:16 | 52.67436 | -112.21367 | 31235 ft | 475 kts | 92° |
| 2026-05-06 01:16 | 52.66421 | -112.16172 | 31623 ft | 477 kts | 93° |
| 2026-05-06 01:16 | 52.65400 | -112.10958 | 32019 ft | 479 kts | 93° |
| 2026-05-06 01:16 | 52.64375 | -112.05734 | 32451 ft | 481 kts | 93° |
| 2026-05-06 01:17 | 52.63343 | -112.00481 | 32812 ft | 483 kts | 94° |
| 2026-05-06 01:17 | 52.62305 | -111.95215 | 33191 ft | 484 kts | 94° |
| 2026-05-06 01:17 | 52.61264 | -111.89953 | 33638 ft | 483 kts | 95° |
| 2026-05-06 01:17 | 52.60240 | -111.84792 | 34095 ft | 481 kts | 95° |
| 2026-05-06 01:18 | 52.59202 | -111.79570 | 34500 ft | 480 kts | 95° |
| 2026-05-06 01:18 | 52.58164 | -111.74356 | 34812 ft | 480 kts | 95° |
| 2026-05-06 01:18 | 52.57125 | -111.69136 | 35108 ft | 480 kts | 96° |
| 2026-05-06 01:18 | 52.56084 | -111.63920 | 35440 ft | 480 kts | 96° |
| 2026-05-06 01:19 | 52.55042 | -111.58721 | 35765 ft | 479 kts | 97° |
| 2026-05-06 01:19 | 52.53999 | -111.53525 | 36084 ft | 479 kts | 97° |
| 2026-05-06 01:19 | 52.52953 | -111.48332 | 36388 ft | 479 kts | 97° |
| 2026-05-06 01:19 | 52.51919 | -111.43213 | 36717 ft | 478 kts | 98° |
| 2026-05-06 01:20 | 52.50872 | -111.38051 | 37112 ft | 476 kts | 99° |
| 2026-05-06 01:20 | 52.49825 | -111.32900 | 37463 ft | 475 kts | 100° |
| 2026-05-06 01:20 | 52.48780 | -111.27766 | 37748 ft | 474 kts | 100° |
| 2026-05-06 01:20 | 52.47734 | -111.22632 | 37990 ft | 475 kts | 100° |
| 2026-05-06 01:21 | 52.46684 | -111.17495 | 38255 ft | 475 kts | 101° |
| 2026-05-06 01:21 | 52.45628 | -111.12342 | 38548 ft | 474 kts | 101° |
| 2026-05-06 01:21 | 52.44585 | -111.07271 | 38819 ft | 474 kts | 101° |
| 2026-05-06 01:21 | 52.43529 | -111.02148 | 39026 ft | 474 kts | 101° |
| 2026-05-06 01:22 | 52.42473 | -110.97040 | 39222 ft | 474 kts | 101° |
| 2026-05-06 01:22 | 52.41412 | -110.91918 | 39277 ft | 477 kts | 101° |
| 2026-05-06 01:22 | 52.39271 | -110.81624 | 39291 ft | 475 kts | 102° |
| 2026-05-06 01:23 | 52.37148 | -110.71491 | 39285 ft | 473 kts | 102° |
| 2026-05-06 01:23 | 52.35018 | -110.61358 | 39279 ft | 470 kts | 102° |
| 2026-05-06 01:24 | 52.32894 | -110.51295 | 39268 ft | 467 kts | 102° |
| 2026-05-06 01:24 | 52.30769 | -110.41282 | 39272 ft | 465 kts | 102° |
| 2026-05-06 01:25 | 52.28642 | -110.31308 | 39275 ft | 465 kts | 102° |
| 2026-05-06 01:25 | 52.26517 | -110.21385 | 39271 ft | 467 kts | 102° |
| 2026-05-06 01:26 | 52.24356 | -110.11345 | 39305 ft | 470 kts | 103° |
| 2026-05-06 01:26 | 52.22172 | -110.01250 | 39272 ft | 473 kts | 103° |
| 2026-05-06 01:27 | 52.20191 | -109.91023 | 39264 ft | 473 kts | 100° |
| 2026-05-06 01:27 | 52.18408 | -109.80778 | 39261 ft | 474 kts | 99° |
| 2026-05-06 01:28 | 52.16604 | -109.70442 | 39256 ft | 475 kts | 99° |
| 2026-05-06 01:28 | 52.14762 | -109.60128 | 39256 ft | 474 kts | 100° |
| 2026-05-06 01:29 | 52.12896 | -109.49836 | 39258 ft | 474 kts | 100° |
| 2026-05-06 01:29 | 52.11022 | -109.39574 | 39258 ft | 473 kts | 100° |
| 2026-05-06 01:30 | 52.09154 | -109.29404 | 39258 ft | 472 kts | 100° |
| 2026-05-06 01:30 | 52.07273 | -109.19210 | 39261 ft | 470 kts | 101° |
| 2026-05-06 01:31 | 52.05386 | -109.09036 | 39259 ft | 470 kts | 101° |
| 2026-05-06 01:31 | 52.03494 | -108.98888 | 39264 ft | 469 kts | 101° |
| 2026-05-06 01:32 | 52.01604 | -108.88815 | 39281 ft | 470 kts | 101° |
| 2026-05-06 01:32 | 51.99693 | -108.78677 | 39270 ft | 470 kts | 101° |
| 2026-05-06 01:33 | 51.97774 | -108.68546 | 39256 ft | 470 kts | 101° |
| 2026-05-06 01:33 | 51.95845 | -108.58423 | 39268 ft | 470 kts | 101° |
| 2026-05-06 01:34 | 51.93918 | -108.48365 | 39263 ft | 470 kts | 101° |
| 2026-05-06 01:34 | 51.91968 | -108.38243 | 39258 ft | 470 kts | 101° |
| 2026-05-06 01:35 | 51.90009 | -108.28127 | 39262 ft | 471 kts | 102° |
| 2026-05-06 01:35 | 51.88040 | -108.18011 | 39254 ft | 472 kts | 102° |
| 2026-05-06 01:36 | 51.86060 | -108.07888 | 39247 ft | 472 kts | 102° |
| 2026-05-06 01:36 | 51.84084 | -107.97846 | 39247 ft | 472 kts | 102° |
| 2026-05-06 01:37 | 51.82087 | -107.87747 | 39241 ft | 472 kts | 102° |
| 2026-05-06 01:37 | 51.80081 | -107.77656 | 39242 ft | 471 kts | 102° |
| 2026-05-06 01:38 | 51.78066 | -107.67575 | 39236 ft | 472 kts | 102° |
| 2026-05-06 01:38 | 51.76057 | -107.57570 | 39237 ft | 472 kts | 102° |
| 2026-05-06 01:39 | 51.74026 | -107.47512 | 39227 ft | 471 kts | 102° |
| 2026-05-06 01:39 | 51.71988 | -107.37465 | 39227 ft | 471 kts | 103° |
| 2026-05-06 01:40 | 51.69942 | -107.27437 | 39227 ft | 471 kts | 103° |
| 2026-05-06 01:40 | 51.67904 | -107.17491 | 39226 ft | 471 kts | 103° |
| 2026-05-06 01:41 | 51.65841 | -107.07479 | 39232 ft | 471 kts | 103° |
| 2026-05-06 01:41 | 51.63771 | -106.97483 | 39215 ft | 470 kts | 103° |
| 2026-05-06 01:42 | 51.61738 | -106.87710 | 39221 ft | 470 kts | 103° |
| 2026-05-06 01:42 | 51.59667 | -106.77808 | 39215 ft | 470 kts | 103° |
| 2026-05-06 01:43 | 51.57576 | -106.67855 | 39215 ft | 470 kts | 103° |
| 2026-05-06 01:43 | 51.55476 | -106.57914 | 39229 ft | 470 kts | 104° |
| 2026-05-06 01:44 | 51.53364 | -106.47972 | 39216 ft | 470 kts | 104° |
| 2026-05-06 01:44 | 51.51246 | -106.38033 | 39210 ft | 470 kts | 104° |
| 2026-05-06 01:45 | 51.49135 | -106.28175 | 39201 ft | 470 kts | 104° |
| 2026-05-06 01:45 | 51.46997 | -106.18248 | 39200 ft | 470 kts | 104° |
| 2026-05-06 01:46 | 51.44854 | -106.08344 | 39194 ft | 470 kts | 104° |
| 2026-05-06 01:46 | 51.42699 | -105.98444 | 39218 ft | 470 kts | 105° |
| 2026-05-06 01:47 | 51.40536 | -105.88543 | 39195 ft | 471 kts | 105° |
| 2026-05-06 01:47 | 51.38378 | -105.78706 | 39182 ft | 471 kts | 105° |
| 2026-05-06 01:48 | 51.36198 | -105.68818 | 39183 ft | 471 kts | 105° |
| 2026-05-06 01:48 | 51.34007 | -105.58935 | 39180 ft | 471 kts | 105° |
| 2026-05-06 01:49 | 51.31809 | -105.49062 | 39174 ft | 472 kts | 105° |
| 2026-05-06 01:49 | 51.29612 | -105.39254 | 39184 ft | 472 kts | 106° |
| 2026-05-06 01:50 | 51.27398 | -105.29400 | 39175 ft | 472 kts | 106° |
| 2026-05-06 01:50 | 51.25172 | -105.19539 | 39163 ft | 472 kts | 106° |
| 2026-05-06 01:51 | 51.22940 | -105.09703 | 39163 ft | 472 kts | 106° |
| 2026-05-06 01:51 | 51.20699 | -104.99874 | 39160 ft | 472 kts | 106° |
| 2026-05-06 01:52 | 51.18465 | -104.90117 | 39160 ft | 471 kts | 106° |
| 2026-05-06 01:52 | 51.16206 | -104.80309 | 39165 ft | 472 kts | 107° |
| 2026-05-06 01:53 | 51.13941 | -104.70503 | 39153 ft | 471 kts | 107° |
| 2026-05-06 01:53 | 51.11671 | -104.60726 | 39150 ft | 471 kts | 107° |
| 2026-05-06 01:54 | 51.09408 | -104.51022 | 39144 ft | 471 kts | 107° |
| 2026-05-06 01:54 | 51.07122 | -104.41268 | 39145 ft | 470 kts | 107° |
| 2026-05-06 01:55 | 51.04830 | -104.31528 | 39139 ft | 470 kts | 107° |
| 2026-05-06 01:55 | 51.02528 | -104.21792 | 39128 ft | 471 kts | 107° |
| 2026-05-06 01:56 | 51.00235 | -104.12141 | 39119 ft | 471 kts | 108° |
| 2026-05-06 01:56 | 50.97917 | -104.02425 | 39125 ft | 470 kts | 108° |
| 2026-05-06 01:57 | 50.95593 | -103.92728 | 39110 ft | 470 kts | 108° |
| 2026-05-06 01:57 | 50.93263 | -103.83047 | 39111 ft | 470 kts | 108° |
| 2026-05-06 01:58 | 50.90938 | -103.73429 | 39109 ft | 470 kts | 108° |
| 2026-05-06 01:58 | 50.88590 | -103.63762 | 39098 ft | 470 kts | 108° |
| 2026-05-06 01:59 | 50.86234 | -103.54100 | 39100 ft | 471 kts | 108° |
| 2026-05-06 01:59 | 50.83867 | -103.44438 | 39104 ft | 471 kts | 108° |
| 2026-05-06 02:00 | 50.81506 | -103.34846 | 39091 ft | 471 kts | 108° |
| 2026-05-06 02:00 | 50.79120 | -103.25191 | 39094 ft | 472 kts | 108° |
| 2026-05-06 02:01 | 50.76723 | -103.15543 | 39088 ft | 472 kts | 109° |
| 2026-05-06 02:01 | 50.74320 | -103.05898 | 39080 ft | 472 kts | 109° |
| 2026-05-06 02:02 | 50.71908 | -102.96262 | 39078 ft | 472 kts | 109° |
| 2026-05-06 02:02 | 50.69508 | -102.86716 | 39075 ft | 470 kts | 109° |
| 2026-05-06 02:03 | 50.67093 | -102.77156 | 39068 ft | 469 kts | 109° |
| 2026-05-06 02:03 | 50.64675 | -102.67620 | 39122 ft | 468 kts | 110° |
| 2026-05-06 02:04 | 50.62252 | -102.58109 | 39101 ft | 468 kts | 109° |
| 2026-05-06 02:04 | 50.59841 | -102.48676 | 39092 ft | 468 kts | 110° |
| 2026-05-06 02:05 | 50.57403 | -102.39185 | 39094 ft | 468 kts | 110° |
| 2026-05-06 02:05 | 50.54957 | -102.29699 | 39088 ft | 469 kts | 110° |
| 2026-05-06 02:06 | 50.52498 | -102.20203 | 39089 ft | 469 kts | 110° |
| 2026-05-06 02:06 | 50.50040 | -102.10759 | 39096 ft | 470 kts | 110° |
| 2026-05-06 02:07 | 50.47556 | -102.01247 | 39082 ft | 471 kts | 110° |
| 2026-05-06 02:07 | 50.45062 | -101.91732 | 39074 ft | 471 kts | 110° |
| 2026-05-06 02:08 | 50.42560 | -101.82232 | 39070 ft | 471 kts | 110° |
| 2026-05-06 02:08 | 50.40052 | -101.72745 | 39073 ft | 471 kts | 110° |
| 2026-05-06 02:09 | 50.37554 | -101.63340 | 39066 ft | 470 kts | 110° |
| 2026-05-06 02:09 | 50.35036 | -101.53895 | 39072 ft | 470 kts | 111° |
| 2026-05-06 02:10 | 50.32512 | -101.44465 | 39059 ft | 469 kts | 111° |
| 2026-05-06 02:10 | 50.29981 | -101.35052 | 39052 ft | 469 kts | 111° |
| 2026-05-06 02:11 | 50.27464 | -101.25722 | 39055 ft | 468 kts | 111° |
| 2026-05-06 02:11 | 50.24926 | -101.16355 | 39058 ft | 468 kts | 111° |
| 2026-05-06 02:12 | 50.22376 | -101.06983 | 39064 ft | 468 kts | 111° |
| 2026-05-06 02:12 | 50.19819 | -100.97622 | 39052 ft | 469 kts | 111° |
| 2026-05-06 02:13 | 50.17253 | -100.88264 | 39052 ft | 469 kts | 111° |
| 2026-05-06 02:13 | 50.14692 | -100.78966 | 39045 ft | 470 kts | 111° |
| 2026-05-06 02:14 | 50.12105 | -100.69605 | 39045 ft | 470 kts | 111° |
| 2026-05-06 02:14 | 50.09507 | -100.60246 | 39043 ft | 471 kts | 112° |
| 2026-05-06 02:15 | 50.06897 | -100.50880 | 39058 ft | 472 kts | 112° |
| 2026-05-06 02:15 | 50.04274 | -100.41501 | 39044 ft | 473 kts | 112° |
| 2026-05-06 02:16 | 50.01639 | -100.32120 | 39043 ft | 474 kts | 112° |
| 2026-05-06 02:16 | 49.99010 | -100.22797 | 39045 ft | 474 kts | 112° |
| 2026-05-06 02:17 | 49.96355 | -100.13413 | 39039 ft | 475 kts | 112° |
| 2026-05-06 02:17 | 49.95024 | -100.08722 | 38852 ft | 479 kts | 112° |
| 2026-05-06 02:17 | 49.93672 | -100.03962 | 38225 ft | 482 kts | 112° |
| 2026-05-06 02:18 | 49.92320 | -99.99206 | 37573 ft | 480 kts | 111° |
| 2026-05-06 02:18 | 49.91240 | -99.94329 | 36843 ft | 477 kts | 102° |
| 2026-05-06 02:18 | 49.90631 | -99.89296 | 36187 ft | 473 kts | 93° |
| 2026-05-06 02:18 | 49.90382 | -99.84220 | 35490 ft | 472 kts | 91° |
| 2026-05-06 02:19 | 49.90177 | -99.79125 | 34714 ft | 475 kts | 91° |
| 2026-05-06 02:19 | 49.89979 | -99.74006 | 33929 ft | 477 kts | 91° |
| 2026-05-06 02:19 | 49.89773 | -99.68925 | 32994 ft | 479 kts | 91° |
| 2026-05-06 02:19 | 49.89549 | -99.63783 | 32126 ft | 479 kts | 91° |
| 2026-05-06 02:20 | 49.89069 | -99.53576 | 30881 ft | 469 kts | 92° |
| 2026-05-06 02:20 | 49.88823 | -99.48568 | 30287 ft | 463 kts | 92° |
| 2026-05-06 02:20 | 49.88576 | -99.43615 | 29622 ft | 458 kts | 92° |
| 2026-05-06 02:21 | 49.88330 | -99.38722 | 28946 ft | 452 kts | 92° |
| 2026-05-06 02:21 | 49.88086 | -99.33910 | 28337 ft | 444 kts | 92° |
| 2026-05-06 02:21 | 49.87845 | -99.29170 | 27734 ft | 438 kts | 92° |
| 2026-05-06 02:21 | 49.87609 | -99.24560 | 27129 ft | 432 kts | 91° |
| 2026-05-06 02:22 | 49.87371 | -99.19940 | 26524 ft | 427 kts | 91° |
| 2026-05-06 02:22 | 49.87134 | -99.15378 | 25937 ft | 422 kts | 91° |
| 2026-05-06 02:22 | 49.86898 | -99.10863 | 25354 ft | 418 kts | 91° |
| 2026-05-06 02:22 | 49.86663 | -99.06392 | 24797 ft | 414 kts | 92° |
| 2026-05-06 02:23 | 49.86429 | -99.01967 | 24218 ft | 410 kts | 92° |
| 2026-05-06 02:23 | 49.86195 | -98.97578 | 23641 ft | 407 kts | 92° |
| 2026-05-06 02:23 | 49.85960 | -98.93220 | 22952 ft | 404 kts | 92° |
| 2026-05-06 02:23 | 49.85726 | -98.88902 | 22355 ft | 399 kts | 92° |
| 2026-05-06 02:24 | 49.85494 | -98.84641 | 21780 ft | 394 kts | 92° |
| 2026-05-06 02:24 | 49.85263 | -98.80442 | 21209 ft | 390 kts | 92° |
| 2026-05-06 02:24 | 49.85032 | -98.76273 | 20651 ft | 386 kts | 92° |
| 2026-05-06 02:24 | 49.84806 | -98.72213 | 20095 ft | 382 kts | 92° |
| 2026-05-06 02:25 | 49.84578 | -98.68128 | 19544 ft | 379 kts | 92° |
| 2026-05-06 02:25 | 49.84350 | -98.64085 | 19004 ft | 375 kts | 92° |
| 2026-05-06 02:25 | 49.84123 | -98.60077 | 18468 ft | 372 kts | 92° |
| 2026-05-06 02:25 | 49.83895 | -98.56094 | 17850 ft | 370 kts | 92° |
| 2026-05-06 02:26 | 49.83669 | -98.52147 | 17248 ft | 366 kts | 92° |
| 2026-05-06 02:26 | 49.83443 | -98.48243 | 16721 ft | 362 kts | 92° |
| 2026-05-06 02:26 | 49.83218 | -98.44384 | 16183 ft | 358 kts | 92° |
| 2026-05-06 02:26 | 49.82995 | -98.40569 | 15595 ft | 354 kts | 92° |
| 2026-05-06 02:27 | 49.82776 | -98.36841 | 15068 ft | 351 kts | 92° |
| 2026-05-06 02:27 | 49.82555 | -98.33098 | 14539 ft | 347 kts | 92° |
| 2026-05-06 02:27 | 49.82335 | -98.29387 | 14030 ft | 344 kts | 92° |
| 2026-05-06 02:27 | 49.82116 | -98.25710 | 13483 ft | 342 kts | 92° |
| 2026-05-06 02:28 | 49.81899 | -98.22110 | 12942 ft | 329 kts | 92° |
| 2026-05-06 02:28 | 49.81688 | -98.18652 | 12457 ft | 316 kts | 91° |
| 2026-05-06 02:28 | 49.81486 | -98.15322 | 12004 ft | 305 kts | 91° |
| 2026-05-06 02:28 | 49.81290 | -98.12098 | 11536 ft | 296 kts | 91° |
| 2026-05-06 02:29 | 49.81101 | -98.08981 | 11098 ft | 295 kts | 91° |
| 2026-05-06 02:29 | 49.80910 | -98.05833 | 10765 ft | 290 kts | 91° |
| 2026-05-06 02:29 | 49.80720 | -98.02766 | 10657 ft | 285 kts | 91° |
| 2026-05-06 02:29 | 49.80532 | -97.99723 | 10545 ft | 283 kts | 91° |
| 2026-05-06 02:30 | 49.80359 | -97.96665 | 10226 ft | 288 kts | 90° |
| 2026-05-06 02:30 | 49.80211 | -97.93593 | 10048 ft | 283 kts | 90° |
| 2026-05-06 02:30 | 49.80070 | -97.90580 | 9784 ft | 281 kts | 90° |
| 2026-05-06 02:30 | 49.79926 | -97.87563 | 9418 ft | 280 kts | 90° |
| 2026-05-06 02:31 | 49.79780 | -97.84567 | 9054 ft | 278 kts | 90° |
| 2026-05-06 02:31 | 49.79633 | -97.81590 | 8714 ft | 276 kts | 90° |
| 2026-05-06 02:31 | 49.79486 | -97.78631 | 8362 ft | 275 kts | 90° |
| 2026-05-06 02:31 | 49.79339 | -97.75691 | 8012 ft | 273 kts | 90° |
| 2026-05-06 02:32 | 49.79194 | -97.72804 | 7671 ft | 272 kts | 90° |
| 2026-05-06 02:32 | 49.79047 | -97.69898 | 7345 ft | 270 kts | 90° |
| 2026-05-06 02:32 | 49.78901 | -97.67004 | 7002 ft | 269 kts | 90° |
| 2026-05-06 02:32 | 49.78755 | -97.64120 | 6657 ft | 268 kts | 90° |
| 2026-05-06 02:33 | 49.78608 | -97.61247 | 6305 ft | 267 kts | 90° |
| 2026-05-06 02:33 | 49.78511 | -97.59354 | 6081 ft | 264 kts | 90° |
| 2026-05-06 02:33 | 49.78150 | -97.53016 | 5899 ft | 248 kts | 91° |
| 2026-05-06 02:34 | 49.77972 | -97.50363 | 5845 ft | 245 kts | 91° |
| 2026-05-06 02:34 | 49.77797 | -97.47790 | 5752 ft | 235 kts | 91° |
| 2026-05-06 02:34 | 49.77632 | -97.45340 | 5692 ft | 230 kts | 91° |
| 2026-05-06 02:34 | 49.77468 | -97.42892 | 5662 ft | 228 kts | 91° |
| 2026-05-06 02:35 | 49.77306 | -97.40449 | 5617 ft | 228 kts | 91° |
| 2026-05-06 02:35 | 49.77142 | -97.38006 | 5579 ft | 229 kts | 91° |
| 2026-05-06 02:35 | 49.76977 | -97.35558 | 5528 ft | 229 kts | 91° |
| 2026-05-06 02:35 | 49.76811 | -97.33105 | 5488 ft | 229 kts | 91° |
| 2026-05-06 02:36 | 49.76645 | -97.30649 | 5436 ft | 230 kts | 91° |
| 2026-05-06 02:36 | 49.76537 | -97.28133 | 5163 ft | 238 kts | 86° |
| 2026-05-06 02:36 | 49.76505 | -97.25587 | 4852 ft | 237 kts | 86° |
| 2026-05-06 02:36 | 49.76475 | -97.23066 | 4578 ft | 231 kts | 86° |
| 2026-05-06 02:37 | 49.76441 | -97.20620 | 4265 ft | 224 kts | 86° |
| 2026-05-06 02:37 | 49.76451 | -97.18295 | 3971 ft | 212 kts | 78° |
| 2026-05-06 02:37 | 49.76801 | -97.16239 | 3710 ft | 185 kts | 58° |
| 2026-05-06 02:37 | 49.77497 | -97.14710 | 3485 ft | 167 kts | 38° |
| 2026-05-06 02:38 | 49.78429 | -97.13650 | 3124 ft | 164 kts | 24° |
| 2026-05-06 02:38 | 49.79442 | -97.12973 | 2990 ft | 156 kts | 10° |
| 2026-05-06 02:38 | 49.80516 | -97.12732 | 2868 ft | 157 kts | 358° |
| 2026-05-06 02:38 | 49.81591 | -97.12920 | 2695 ft | 154 kts | 344° |
| 2026-05-06 02:39 | 49.82569 | -97.13574 | 2517 ft | 154 kts | 325° |
| 2026-05-06 02:39 | 49.83430 | -97.14563 | 2295 ft | 152 kts | 323° |
| 2026-05-06 02:39 | 49.84192 | -97.15531 | 2116 ft | 132 kts | 321° |
| 2026-05-06 02:39 | 49.84846 | -97.16401 | 1942 ft | 117 kts | 320° |
| 2026-05-06 02:40 | 49.85449 | -97.17221 | 1745 ft | 121 kts | 320° |
| 2026-05-06 02:40 | 49.86097 | -97.18122 | 1582 ft | 128 kts | 320° |
| 2026-05-06 02:40 | 49.86771 | -97.19047 | 1450 ft | 131 kts | 320° |
| 2026-05-06 02:40 | 49.87453 | -97.19985 | 1298 ft | 131 kts | 319° |
| 2026-05-06 02:41 | 49.88125 | -97.20899 | 1163 ft | 125 kts | 320° |
| 2026-05-06 02:41 | 49.88760 | -97.21752 | 1004 ft | 119 kts | 320° |
| 2026-05-06 02:41 | 49.89379 | -97.22600 | 841 ft | 117 kts | 318° |
| 2026-05-06 02:41 | 49.89983 | -97.23427 | 786 ft | 107 kts | 318° |
| 2026-05-06 02:42 | 49.90379 | -97.23968 | 785 ft | 45 kts | 319° |
| 2026-05-06 02:42 | 49.90596 | -97.24264 | 788 ft | 34 kts | 319° |
| 2026-05-06 02:42 | 49.90736 | -97.24287 | 786 ft | 23 kts | 65° |
| 2026-05-06 02:42 | 49.90770 | -97.24049 | 787 ft | 22 kts | 79° |
| 2026-05-06 02:43 | 49.90800 | -97.23816 | 787 ft | 22 kts | 78° |
| 2026-05-06 02:43 | 49.90830 | -97.23590 | 785 ft | 21 kts | 78° |
| 2026-05-06 02:43 | 49.90858 | -97.23371 | 788 ft | 20 kts | 79° |
| 2026-05-06 02:43 | 49.90876 | -97.23154 | 785 ft | 20 kts | 85° |
| 2026-05-06 02:44 | 49.90887 | -97.22946 | 785 ft | 17 kts | 84° |
| 2026-05-06 02:44 | 49.90875 | -97.22827 | 785 ft | 10 kts | 119° |
| 2026-05-06 02:44 | 49.90834 | -97.22739 | 785 ft | 10 kts | 128° |
| 2026-05-06 02:44 | 49.90787 | -97.22662 | 785 ft | 10 kts | 152° |
| 2026-05-06 02:45 | 49.90755 | -97.22644 | 785 ft | 1 kts | 126° |
| 2026-05-06 02:45 | 49.90754 | -97.22623 | 785 ft | 4 kts | 90° |
| 2026-05-06 02:45 | 49.90760 | -97.22549 | 785 ft | 8 kts | 80° |
| 2026-05-06 02:45 | 49.90728 | -97.22506 | 785 ft | 7 kts | 177° |
| 2026-05-06 02:46 | 49.90694 | -97.22503 | 785 ft | 3 kts | 174° |
| 2026-05-06 02:46 | 49.90681 | -97.22500 | 785 ft | 1 kts | 174° |
| 2026-05-06 02:46 | 49.90680 | -97.22500 | 785 ft | 0 kts | 174° |